College Station, Texas
Current Conditions -  °F | °C
As of 11:53 PM on Wednesday 28 Jan 2015 (Local Time) from KCLL Reporting Station
Clear Clear  
Wind Chill: 58°   Ceiling: Unl
Heat Index: 58°   Visibility: 10mi
Dew Point: 56°   Wind: 9mph
Humidity: 93%   Direction: 180°S
Pressure: 30.15"   Gusts: NA
Location:  30.62°N, 96.32°W
Report Text: KCLL 290553Z 18008KT 10SM CLR 14/13 A3015 RMK AO2 SLP207 T01440133 10217 20144 402610078 53012
Loading
Personal Weather Stations






























Interactive Weather Map New forecast layout! Learn more

10-Day Weather Forecast

Advertisements
Track Severe Weather on mobile